sensor_id;sensor_type;location;lat;lon;timestamp;P1;durP1;ratioP1;P2;durP2;ratioP2
305;SDS011;137;48.578;9.180;2023-10-13T00:01:03;6.57;;;3.50;;
305;SDS011;137;48.578;9.180;2023-10-13T00:03:31;4.20;;;2.30;;
305;SDS011;137;48.578;9.180;2023-10-13T00:05:58;2.57;;;2.23;;
305;SDS011;137;48.578;9.180;2023-10-13T00:08:28;4.90;;;2.80;;
305;SDS011;137;48.578;9.180;2023-10-13T00:10:55;5.70;;;3.10;;
305;SDS011;137;48.578;9.180;2023-10-13T00:13:25;8.27;;;2.90;;
305;SDS011;137;48.578;9.180;2023-10-13T00:15:53;7.30;;;2.90;;
305;SDS011;137;48.578;9.180;2023-10-13T00:18:28;5.83;;;2.10;;
305;SDS011;137;48.578;9.180;2023-10-13T00:20:58;6.27;;;2.70;;
305;SDS011;137;48.578;9.180;2023-10-13T00:23:25;6.23;;;3.00;;
305;SDS011;137;48.578;9.180;2023-10-13T00:25:53;8.00;;;2.90;;
305;SDS011;137;48.578;9.180;2023-10-13T00:28:24;3.80;;;3.37;;
305;SDS011;137;48.578;9.180;2023-10-13T00:31:00;5.73;;;3.43;;
305;SDS011;137;48.578;9.180;2023-10-13T00:33:37;6.23;;;2.73;;
305;SDS011;137;48.578;9.180;2023-10-13T00:36:04;4.10;;;2.87;;
305;SDS011;137;48.578;9.180;2023-10-13T00:38:32;9.63;;;3.30;;
305;SDS011;137;48.578;9.180;2023-10-13T00:41:00;4.33;;;2.77;;
305;SDS011;137;48.578;9.180;2023-10-13T00:43:43;5.10;;;3.33;;
305;SDS011;137;48.578;9.180;2023-10-13T00:46:13;5.50;;;3.43;;
305;SDS011;137;48.578;9.180;2023-10-13T00:48:45;8.80;;;3.47;;
305;SDS011;137;48.578;9.180;2023-10-13T00:51:17;5.70;;;2.57;;
305;SDS011;137;48.578;9.180;2023-10-13T00:53:47;4.23;;;2.97;;
305;SDS011;137;48.578;9.180;2023-10-13T00:56:15;3.57;;;3.00;;
305;SDS011;137;48.578;9.180;2023-10-13T00:58:46;4.43;;;3.20;;
305;SDS011;137;48.578;9.180;2023-10-13T01:01:18;5.80;;;2.90;;
305;SDS011;137;48.578;9.180;2023-10-13T01:03:48;5.33;;;3.70;;
305;SDS011;137;48.578;9.180;2023-10-13T01:06:20;4.47;;;2.90;;
305;SDS011;137;48.578;9.180;2023-10-13T01:08:56;7.70;;;3.60;;
305;SDS011;137;48.578;9.180;2023-10-13T01:11:22;4.87;;;2.67;;
305;SDS011;137;48.578;9.180;2023-10-13T01:13:49;3.43;;;3.00;;
305;SDS011;137;48.578;9.180;2023-10-13T01:16:16;6.03;;;3.07;;
305;SDS011;137;48.578;9.180;2023-10-13T01:18:47;6.37;;;3.10;;
305;SDS011;137;48.578;9.180;2023-10-13T01:21:14;4.27;;;3.20;;
305;SDS011;137;48.578;9.180;2023-10-13T01:23:46;12.50;;;3.10;;
305;SDS011;137;48.578;9.180;2023-10-13T01:26:13;9.77;;;3.70;;
305;SDS011;137;48.578;9.180;2023-10-13T01:28:46;7.70;;;2.87;;
305;SDS011;137;48.578;9.180;2023-10-13T01:31:13;5.30;;;3.33;;
305;SDS011;137;48.578;9.180;2023-10-13T01:33:49;3.50;;;2.97;;
305;SDS011;137;48.578;9.180;2023-10-13T01:36:19;5.87;;;3.33;;
305;SDS011;137;48.578;9.180;2023-10-13T01:38:47;6.93;;;3.70;;
305;SDS011;137;48.578;9.180;2023-10-13T01:41:13;3.03;;;2.63;;
305;SDS011;137;48.578;9.180;2023-10-13T01:43:41;4.93;;;2.40;;
305;SDS011;137;48.578;9.180;2023-10-13T01:46:06;4.00;;;3.07;;
305;SDS011;137;48.578;9.180;2023-10-13T01:48:34;3.20;;;2.27;;
305;SDS011;137;48.578;9.180;2023-10-13T01:51:04;4.57;;;3.50;;
305;SDS011;137;48.578;9.180;2023-10-13T01:53:34;8.43;;;2.83;;
305;SDS011;137;48.578;9.180;2023-10-13T01:56:03;6.60;;;3.17;;
305;SDS011;137;48.578;9.180;2023-10-13T01:58:37;5.90;;;3.53;;
305;SDS011;137;48.578;9.180;2023-10-13T02:01:06;3.70;;;2.50;;
305;SDS011;137;48.578;9.180;2023-10-13T02:03:34;3.03;;;2.73;;
305;SDS011;137;48.578;9.180;2023-10-13T02:06:06;6.70;;;3.40;;
305;SDS011;137;48.578;9.180;2023-10-13T02:08:35;6.00;;;2.97;;
305;SDS011;137;48.578;9.180;2023-10-13T02:11:09;4.70;;;2.90;;
305;SDS011;137;48.578;9.180;2023-10-13T02:13:34;7.93;;;3.10;;
305;SDS011;137;48.578;9.180;2023-10-13T02:16:06;4.80;;;2.80;;
305;SDS011;137;48.578;9.180;2023-10-13T02:18:32;5.10;;;3.30;;
305;SDS011;137;48.578;9.180;2023-10-13T02:21:06;6.40;;;3.10;;
305;SDS011;137;48.578;9.180;2023-10-13T02:23:37;3.40;;;2.77;;
305;SDS011;137;48.578;9.180;2023-10-13T02:26:09;4.07;;;3.00;;
305;SDS011;137;48.578;9.180;2023-10-13T02:28:37;5.03;;;2.73;;
305;SDS011;137;48.578;9.180;2023-10-13T02:31:04;4.83;;;2.40;;
305;SDS011;137;48.578;9.180;2023-10-13T02:33:31;3.57;;;3.27;;
305;SDS011;137;48.578;9.180;2023-10-13T02:35:59;4.07;;;3.43;;
305;SDS011;137;48.578;9.180;2023-10-13T02:38:28;5.20;;;2.70;;
305;SDS011;137;48.578;9.180;2023-10-13T02:40:59;4.50;;;3.00;;
305;SDS011;137;48.578;9.180;2023-10-13T02:43:32;3.70;;;2.67;;
305;SDS011;137;48.578;9.180;2023-10-13T02:46:00;4.07;;;2.67;;
305;SDS011;137;48.578;9.180;2023-10-13T02:48:26;5.90;;;3.17;;
305;SDS011;137;48.578;9.180;2023-10-13T02:51:05;5.17;;;2.93;;
305;SDS011;137;48.578;9.180;2023-10-13T02:53:43;6.73;;;3.50;;
305;SDS011;137;48.578;9.180;2023-10-13T02:56:12;4.70;;;2.67;;
305;SDS011;137;48.578;9.180;2023-10-13T02:58:41;4.47;;;3.10;;
305;SDS011;137;48.578;9.180;2023-10-13T03:01:11;4.70;;;2.30;;
305;SDS011;137;48.578;9.180;2023-10-13T03:03:44;7.03;;;3.70;;
305;SDS011;137;48.578;9.180;2023-10-13T03:06:15;4.70;;;3.40;;
305;SDS011;137;48.578;9.180;2023-10-13T03:08:46;6.67;;;3.63;;
305;SDS011;137;48.578;9.180;2023-10-13T03:11:12;5.40;;;3.77;;
305;SDS011;137;48.578;9.180;2023-10-13T03:13:40;4.23;;;3.20;;
305;SDS011;137;48.578;9.180;2023-10-13T03:16:13;3.57;;;2.73;;
305;SDS011;137;48.578;9.180;2023-10-13T03:18:42;5.90;;;2.93;;
305;SDS011;137;48.578;9.180;2023-10-13T03:21:18;7.23;;;3.47;;
305;SDS011;137;48.578;9.180;2023-10-13T03:23:54;4.20;;;3.43;;
305;SDS011;137;48.578;9.180;2023-10-13T03:26:21;4.50;;;2.90;;
305;SDS011;137;48.578;9.180;2023-10-13T03:28:49;5.90;;;2.90;;
305;SDS011;137;48.578;9.180;2023-10-13T03:31:17;5.77;;;3.00;;
305;SDS011;137;48.578;9.180;2023-10-13T03:33:48;4.47;;;2.90;;
305;SDS011;137;48.578;9.180;2023-10-13T03:36:21;6.60;;;3.57;;
305;SDS011;137;48.578;9.180;2023-10-13T03:39:20;6.87;;;3.53;;
305;SDS011;137;48.578;9.180;2023-10-13T03:41:52;4.93;;;2.80;;
305;SDS011;137;48.578;9.180;2023-10-13T03:44:20;5.90;;;3.00;;
305;SDS011;137;48.578;9.180;2023-10-13T03:46:48;9.13;;;3.53;;
305;SDS011;137;48.578;9.180;2023-10-13T03:49:15;5.17;;;2.93;;
305;SDS011;137;48.578;9.180;2023-10-13T03:51:46;4.77;;;3.33;;
305;SDS011;137;48.578;9.180;2023-10-13T03:54:14;3.67;;;3.13;;
305;SDS011;137;48.578;9.180;2023-10-13T03:56:42;4.90;;;3.10;;
305;SDS011;137;48.578;9.180;2023-10-13T03:59:10;3.37;;;3.07;;
305;SDS011;137;48.578;9.180;2023-10-13T04:01:45;5.93;;;3.10;;
305;SDS011;137;48.578;9.180;2023-10-13T04:04:24;6.13;;;3.53;;
305;SDS011;137;48.578;9.180;2023-10-13T04:06:59;7.80;;;5.30;;
305;SDS011;137;48.578;9.180;2023-10-13T04:09:59;5.50;;;4.73;;
305;SDS011;137;48.578;9.180;2023-10-13T04:12:55;8.10;;;4.87;;
305;SDS011;137;48.578;9.180;2023-10-13T04:15:42;7.53;;;4.70;;
305;SDS011;137;48.578;9.180;2023-10-13T04:18:28;5.10;;;3.73;;
305;SDS011;137;48.578;9.180;2023-10-13T04:21:15;5.80;;;4.70;;
305;SDS011;137;48.578;9.180;2023-10-13T04:24:05;4.47;;;3.63;;
305;SDS011;137;48.578;9.180;2023-10-13T04:26:48;6.03;;;4.33;;
305;SDS011;137;48.578;9.180;2023-10-13T04:29:43;5.97;;;3.80;;
305;SDS011;137;48.578;9.180;2023-10-13T04:32:17;5.23;;;4.33;;
305;SDS011;137;48.578;9.180;2023-10-13T04:34:55;4.43;;;3.40;;
305;SDS011;137;48.578;9.180;2023-10-13T04:37:33;9.27;;;4.00;;
305;SDS011;137;48.578;9.180;2023-10-13T04:40:13;4.43;;;3.47;;
305;SDS011;137;48.578;9.180;2023-10-13T04:42:42;6.13;;;3.50;;
305;SDS011;137;48.578;9.180;2023-10-13T04:45:15;4.43;;;3.10;;
305;SDS011;137;48.578;9.180;2023-10-13T04:48:04;4.33;;;3.37;;
305;SDS011;137;48.578;9.180;2023-10-13T04:50:58;6.20;;;3.23;;
305;SDS011;137;48.578;9.180;2023-10-13T04:53:47;6.87;;;3.73;;
305;SDS011;137;48.578;9.180;2023-10-13T04:56:25;7.97;;;4.07;;
305;SDS011;137;48.578;9.180;2023-10-13T04:59:09;3.93;;;3.20;;
305;SDS011;137;48.578;9.180;2023-10-13T05:02:00;6.80;;;3.20;;
305;SDS011;137;48.578;9.180;2023-10-13T05:04:41;6.83;;;3.60;;
305;SDS011;137;48.578;9.180;2023-10-13T05:07:23;5.30;;;3.70;;
305;SDS011;137;48.578;9.180;2023-10-13T05:10:07;3.47;;;2.93;;
305;SDS011;137;48.578;9.180;2023-10-13T05:12:48;6.47;;;3.30;;
305;SDS011;137;48.578;9.180;2023-10-13T05:15:33;4.70;;;3.13;;
305;SDS011;137;48.578;9.180;2023-10-13T05:18:16;4.70;;;3.50;;
305;SDS011;137;48.578;9.180;2023-10-13T05:21:00;9.30;;;3.63;;
305;SDS011;137;48.578;9.180;2023-10-13T05:23:46;4.50;;;3.27;;
305;SDS011;137;48.578;9.180;2023-10-13T05:26:30;6.30;;;3.70;;
305;SDS011;137;48.578;9.180;2023-10-13T05:29:14;9.80;;;4.00;;
305;SDS011;137;48.578;9.180;2023-10-13T05:31:58;4.70;;;4.03;;
305;SDS011;137;48.578;9.180;2023-10-13T05:34:42;8.47;;;3.90;;
305;SDS011;137;48.578;9.180;2023-10-13T05:37:29;6.63;;;4.43;;
305;SDS011;137;48.578;9.180;2023-10-13T05:40:15;5.70;;;3.53;;
305;SDS011;137;48.578;9.180;2023-10-13T05:42:59;7.30;;;3.33;;
305;SDS011;137;48.578;9.180;2023-10-13T05:45:43;8.07;;;4.50;;
305;SDS011;137;48.578;9.180;2023-10-13T05:48:25;5.30;;;3.87;;
305;SDS011;137;48.578;9.180;2023-10-13T05:51:07;11.37;;;5.17;;
305;SDS011;137;48.578;9.180;2023-10-13T05:53:52;5.13;;;3.43;;
305;SDS011;137;48.578;9.180;2023-10-13T05:56:37;6.57;;;3.90;;
305;SDS011;137;48.578;9.180;2023-10-13T05:59:21;5.53;;;3.57;;
305;SDS011;137;48.578;9.180;2023-10-13T06:02:05;7.30;;;3.80;;
305;SDS011;137;48.578;9.180;2023-10-13T06:04:49;6.50;;;3.60;;
305;SDS011;137;48.578;9.180;2023-10-13T06:07:33;5.77;;;3.00;;
305;SDS011;137;48.578;9.180;2023-10-13T06:10:17;5.50;;;3.50;;
305;SDS011;137;48.578;9.180;2023-10-13T06:13:03;4.17;;;3.40;;
305;SDS011;137;48.578;9.180;2023-10-13T06:15:48;8.43;;;4.17;;
305;SDS011;137;48.578;9.180;2023-10-13T06:18:32;3.50;;;3.20;;
305;SDS011;137;48.578;9.180;2023-10-13T06:21:16;8.20;;;3.33;;
305;SDS011;137;48.578;9.180;2023-10-13T06:24:00;7.60;;;3.97;;
305;SDS011;137;48.578;9.180;2023-10-13T06:26:43;6.10;;;4.03;;
305;SDS011;137;48.578;9.180;2023-10-13T06:29:31;7.80;;;3.60;;
305;SDS011;137;48.578;9.180;2023-10-13T06:31:58;6.90;;;3.90;;
305;SDS011;137;48.578;9.180;2023-10-13T06:34:26;6.70;;;3.93;;
305;SDS011;137;48.578;9.180;2023-10-13T06:37:03;4.33;;;3.93;;
305;SDS011;137;48.578;9.180;2023-10-13T06:39:47;4.07;;;3.50;;
305;SDS011;137;48.578;9.180;2023-10-13T06:42:13;5.40;;;4.17;;
305;SDS011;137;48.578;9.180;2023-10-13T06:44:43;6.13;;;3.70;;
305;SDS011;137;48.578;9.180;2023-10-13T06:47:11;6.80;;;5.00;;
305;SDS011;137;48.578;9.180;2023-10-13T06:49:39;4.67;;;3.87;;
305;SDS011;137;48.578;9.180;2023-10-13T06:52:08;7.10;;;2.83;;
305;SDS011;137;48.578;9.180;2023-10-13T06:54:35;5.33;;;3.50;;
305;SDS011;137;48.578;9.180;2023-10-13T06:57:04;6.60;;;4.00;;
305;SDS011;137;48.578;9.180;2023-10-13T06:59:32;4.83;;;3.90;;
305;SDS011;137;48.578;9.180;2023-10-13T07:02:02;6.53;;;3.77;;
305;SDS011;137;48.578;9.180;2023-10-13T07:04:31;5.30;;;3.47;;
305;SDS011;137;48.578;9.180;2023-10-13T07:06:58;5.40;;;3.43;;
305;SDS011;137;48.578;9.180;2023-10-13T07:09:26;7.13;;;3.70;;
305;SDS011;137;48.578;9.180;2023-10-13T07:12:14;5.83;;;3.37;;
305;SDS011;137;48.578;9.180;2023-10-13T07:14:46;6.60;;;3.57;;
305;SDS011;137;48.578;9.180;2023-10-13T07:17:18;7.73;;;3.60;;
305;SDS011;137;48.578;9.180;2023-10-13T07:19:50;15.33;;;4.57;;
305;SDS011;137;48.578;9.180;2023-10-13T07:22:19;8.93;;;4.50;;
305;SDS011;137;48.578;9.180;2023-10-13T07:24:47;9.57;;;4.67;;
305;SDS011;137;48.578;9.180;2023-10-13T07:27:15;5.27;;;4.00;;
305;SDS011;137;48.578;9.180;2023-10-13T07:29:55;6.23;;;4.23;;
305;SDS011;137;48.578;9.180;2023-10-13T07:32:40;9.13;;;4.30;;
305;SDS011;137;48.578;9.180;2023-10-13T07:35:10;7.20;;;4.10;;
305;SDS011;137;48.578;9.180;2023-10-13T07:37:37;4.60;;;3.60;;
305;SDS011;137;48.578;9.180;2023-10-13T07:40:06;7.73;;;3.23;;
305;SDS011;137;48.578;9.180;2023-10-13T07:42:47;6.07;;;3.90;;
305;SDS011;137;48.578;9.180;2023-10-13T07:45:14;6.63;;;4.70;;
305;SDS011;137;48.578;9.180;2023-10-13T07:47:44;6.63;;;3.43;;
305;SDS011;137;48.578;9.180;2023-10-13T07:50:11;5.40;;;3.63;;
305;SDS011;137;48.578;9.180;2023-10-13T07:52:38;6.00;;;4.00;;
305;SDS011;137;48.578;9.180;2023-10-13T07:55:23;5.07;;;3.80;;
305;SDS011;137;48.578;9.180;2023-10-13T07:57:50;6.50;;;4.03;;
305;SDS011;137;48.578;9.180;2023-10-13T08:00:20;4.67;;;3.60;;
305;SDS011;137;48.578;9.180;2023-10-13T08:03:05;5.97;;;3.87;;
305;SDS011;137;48.578;9.180;2023-10-13T08:05:45;7.47;;;3.50;;
305;SDS011;137;48.578;9.180;2023-10-13T08:08:23;6.07;;;3.73;;
305;SDS011;137;48.578;9.180;2023-10-13T08:11:00;4.67;;;4.00;;
305;SDS011;137;48.578;9.180;2023-10-13T08:13:33;6.67;;;3.97;;
305;SDS011;137;48.578;9.180;2023-10-13T08:16:02;7.33;;;4.23;;
305;SDS011;137;48.578;9.180;2023-10-13T08:18:34;6.63;;;3.63;;
305;SDS011;137;48.578;9.180;2023-10-13T08:21:01;4.83;;;3.73;;
305;SDS011;137;48.578;9.180;2023-10-13T08:23:29;7.40;;;3.37;;
305;SDS011;137;48.578;9.180;2023-10-13T08:26:16;5.10;;;4.20;;
305;SDS011;137;48.578;9.180;2023-10-13T08:28:57;5.63;;;3.63;;
305;SDS011;137;48.578;9.180;2023-10-13T08:31:45;10.47;;;3.90;;
305;SDS011;137;48.578;9.180;2023-10-13T08:34:30;5.07;;;3.97;;
305;SDS011;137;48.578;9.180;2023-10-13T08:37:03;4.80;;;3.70;;
305;SDS011;137;48.578;9.180;2023-10-13T08:39:44;8.60;;;4.30;;
305;SDS011;137;48.578;9.180;2023-10-13T08:42:40;4.80;;;3.43;;
305;SDS011;137;48.578;9.180;2023-10-13T08:45:31;5.07;;;3.40;;
305;SDS011;137;48.578;9.180;2023-10-13T08:48:16;7.40;;;4.18;;
305;SDS011;137;48.578;9.180;2023-10-13T08:50:45;6.35;;;4.10;;
305;SDS011;137;48.578;9.180;2023-10-13T08:53:17;7.90;;;3.97;;
305;SDS011;137;48.578;9.180;2023-10-13T08:55:53;9.43;;;3.70;;
305;SDS011;137;48.578;9.180;2023-10-13T08:58:30;5.53;;;3.13;;
305;SDS011;137;48.578;9.180;2023-10-13T09:01:11;5.53;;;4.23;;
305;SDS011;137;48.578;9.180;2023-10-13T09:03:39;6.05;;;3.70;;
305;SDS011;137;48.578;9.180;2023-10-13T09:06:08;9.67;;;3.87;;
305;SDS011;137;48.578;9.180;2023-10-13T09:08:44;6.20;;;4.13;;
305;SDS011;137;48.578;9.180;2023-10-13T09:11:31;4.87;;;3.90;;
305;SDS011;137;48.578;9.180;2023-10-13T09:14:13;7.80;;;3.60;;
305;SDS011;137;48.578;9.180;2023-10-13T09:17:00;10.07;;;4.10;;
305;SDS011;137;48.578;9.180;2023-10-13T09:22:22;5.77;;;3.17;;
305;SDS011;137;48.578;9.180;2023-10-13T09:24:54;6.50;;;3.70;;
305;SDS011;137;48.578;9.180;2023-10-13T09:27:23;5.83;;;3.63;;
305;SDS011;137;48.578;9.180;2023-10-13T09:29:55;7.73;;;3.80;;
305;SDS011;137;48.578;9.180;2023-10-13T09:32:26;6.13;;;3.50;;
305;SDS011;137;48.578;9.180;2023-10-13T09:34:53;8.80;;;3.33;;
305;SDS011;137;48.578;9.180;2023-10-13T09:37:28;8.20;;;4.50;;
305;SDS011;137;48.578;9.180;2023-10-13T09:39:53;5.00;;;3.40;;
305;SDS011;137;48.578;9.180;2023-10-13T09:42:30;8.47;;;3.70;;
305;SDS011;137;48.578;9.180;2023-10-13T09:44:59;8.97;;;3.77;;
305;SDS011;137;48.578;9.180;2023-10-13T09:47:29;6.53;;;3.77;;
305;SDS011;137;48.578;9.180;2023-10-13T09:50:01;10.47;;;3.70;;
305;SDS011;137;48.578;9.180;2023-10-13T09:52:40;7.90;;;3.50;;
305;SDS011;137;48.578;9.180;2023-10-13T09:55:13;6.17;;;3.90;;
305;SDS011;137;48.578;9.180;2023-10-13T09:57:47;6.33;;;2.87;;
305;SDS011;137;48.578;9.180;2023-10-13T10:00:23;5.90;;;3.10;;
305;SDS011;137;48.578;9.180;2023-10-13T10:03:08;7.13;;;3.27;;
305;SDS011;137;48.578;9.180;2023-10-13T10:05:54;9.17;;;3.67;;
305;SDS011;137;48.578;9.180;2023-10-13T10:08:29;7.30;;;2.83;;
305;SDS011;137;48.578;9.180;2023-10-13T10:11:07;6.13;;;2.57;;
305;SDS011;137;48.578;9.180;2023-10-13T10:13:46;4.53;;;2.77;;
305;SDS011;137;48.578;9.180;2023-10-13T10:16:24;9.13;;;3.37;;
305;SDS011;137;48.578;9.180;2023-10-13T10:19:03;8.90;;;3.23;;
305;SDS011;137;48.578;9.180;2023-10-13T10:21:33;5.13;;;2.80;;
305;SDS011;137;48.578;9.180;2023-10-13T10:24:02;5.60;;;2.67;;
305;SDS011;137;48.578;9.180;2023-10-13T10:26:49;4.77;;;3.20;;
305;SDS011;137;48.578;9.180;2023-10-13T10:29:17;7.00;;;3.03;;
305;SDS011;137;48.578;9.180;2023-10-13T10:31:44;6.73;;;3.07;;
305;SDS011;137;48.578;9.180;2023-10-13T10:34:12;6.80;;;2.10;;
305;SDS011;137;48.578;9.180;2023-10-13T10:36:44;5.13;;;3.17;;
305;SDS011;137;48.578;9.180;2023-10-13T10:39:14;4.83;;;2.40;;
305;SDS011;137;48.578;9.180;2023-10-13T10:41:42;8.07;;;2.60;;
305;SDS011;137;48.578;9.180;2023-10-13T10:44:17;5.40;;;2.83;;
305;SDS011;137;48.578;9.180;2023-10-13T10:46:48;5.37;;;3.20;;
305;SDS011;137;48.578;9.180;2023-10-13T10:49:22;4.90;;;2.80;;
305;SDS011;137;48.578;9.180;2023-10-13T10:51:57;5.77;;;3.03;;
305;SDS011;137;48.578;9.180;2023-10-13T10:54:30;4.90;;;3.00;;
305;SDS011;137;48.578;9.180;2023-10-13T10:56:58;3.90;;;2.57;;
305;SDS011;137;48.578;9.180;2023-10-13T10:59:36;4.70;;;2.47;;
305;SDS011;137;48.578;9.180;2023-10-13T11:02:03;4.73;;;2.57;;
305;SDS011;137;48.578;9.180;2023-10-13T11:04:31;5.80;;;3.13;;
305;SDS011;137;48.578;9.180;2023-10-13T11:07:00;3.80;;;2.53;;
305;SDS011;137;48.578;9.180;2023-10-13T11:09:28;14.33;;;2.90;;
305;SDS011;137;48.578;9.180;2023-10-13T11:12:13;5.47;;;2.80;;
305;SDS011;137;48.578;9.180;2023-10-13T11:14:41;6.63;;;2.20;;
305;SDS011;137;48.578;9.180;2023-10-13T11:17:18;4.80;;;2.57;;
305;SDS011;137;48.578;9.180;2023-10-13T11:19:46;6.13;;;3.13;;
305;SDS011;137;48.578;9.180;2023-10-13T11:22:13;3.90;;;2.30;;
305;SDS011;137;48.578;9.180;2023-10-13T11:24:55;3.17;;;2.33;;
305;SDS011;137;48.578;9.180;2023-10-13T11:27:28;10.67;;;3.30;;
305;SDS011;137;48.578;9.180;2023-10-13T11:30:20;5.93;;;2.80;;
305;SDS011;137;48.578;9.180;2023-10-13T11:32:56;4.30;;;2.63;;
305;SDS011;137;48.578;9.180;2023-10-13T11:35:23;5.20;;;2.60;;
305;SDS011;137;48.578;9.180;2023-10-13T11:38:13;4.37;;;3.20;;
305;SDS011;137;48.578;9.180;2023-10-13T11:40:50;5.00;;;3.00;;
305;SDS011;137;48.578;9.180;2023-10-13T11:43:33;3.73;;;2.40;;
305;SDS011;137;48.578;9.180;2023-10-13T11:46:17;2.53;;;2.03;;
305;SDS011;137;48.578;9.180;2023-10-13T11:49:05;3.00;;;2.27;;
305;SDS011;137;48.578;9.180;2023-10-13T11:51:43;5.80;;;2.83;;
305;SDS011;137;48.578;9.180;2023-10-13T11:54:11;4.60;;;2.80;;
305;SDS011;137;48.578;9.180;2023-10-13T11:56:37;6.33;;;2.60;;
305;SDS011;137;48.578;9.180;2023-10-13T11:59:06;8.07;;;2.63;;
305;SDS011;137;48.578;9.180;2023-10-13T12:01:41;5.20;;;2.67;;
305;SDS011;137;48.578;9.180;2023-10-13T12:04:26;5.20;;;2.90;;
305;SDS011;137;48.578;9.180;2023-10-13T12:07:05;6.70;;;3.10;;
305;SDS011;137;48.578;9.180;2023-10-13T12:09:42;4.20;;;2.33;;
305;SDS011;137;48.578;9.180;2023-10-13T12:12:28;8.47;;;3.20;;
305;SDS011;137;48.578;9.180;2023-10-13T12:14:57;2.93;;;2.20;;
305;SDS011;137;48.578;9.180;2023-10-13T12:17:34;4.97;;;3.10;;
305;SDS011;137;48.578;9.180;2023-10-13T12:20:01;4.37;;;2.57;;
305;SDS011;137;48.578;9.180;2023-10-13T12:22:30;4.20;;;2.60;;
305;SDS011;137;48.578;9.180;2023-10-13T12:25:04;4.40;;;2.87;;
305;SDS011;137;48.578;9.180;2023-10-13T12:27:43;3.70;;;2.60;;
305;SDS011;137;48.578;9.180;2023-10-13T12:30:15;4.43;;;3.00;;
305;SDS011;137;48.578;9.180;2023-10-13T12:33:01;4.00;;;2.60;;
305;SDS011;137;48.578;9.180;2023-10-13T12:35:34;4.60;;;2.80;;
305;SDS011;137;48.578;9.180;2023-10-13T12:38:10;6.53;;;2.93;;
305;SDS011;137;48.578;9.180;2023-10-13T12:41:02;10.00;;;2.70;;
305;SDS011;137;48.578;9.180;2023-10-13T12:43:48;3.40;;;2.47;;
305;SDS011;137;48.578;9.180;2023-10-13T12:46:43;3.73;;;2.50;;
305;SDS011;137;48.578;9.180;2023-10-13T12:49:27;6.85;;;2.70;;
305;SDS011;137;48.578;9.180;2023-10-13T12:52:14;4.57;;;3.10;;
305;SDS011;137;48.578;9.180;2023-10-13T12:54:44;5.97;;;3.43;;
305;SDS011;137;48.578;9.180;2023-10-13T12:57:13;6.40;;;2.60;;
305;SDS011;137;48.578;9.180;2023-10-13T12:59:40;3.53;;;3.10;;
305;SDS011;137;48.578;9.180;2023-10-13T13:02:09;5.23;;;2.73;;
305;SDS011;137;48.578;9.180;2023-10-13T13:04:40;8.70;;;3.20;;
305;SDS011;137;48.578;9.180;2023-10-13T13:07:09;4.87;;;3.03;;
305;SDS011;137;48.578;9.180;2023-10-13T13:09:38;4.20;;;2.63;;
305;SDS011;137;48.578;9.180;2023-10-13T13:12:05;5.90;;;2.80;;
305;SDS011;137;48.578;9.180;2023-10-13T13:14:32;5.70;;;3.23;;
305;SDS011;137;48.578;9.180;2023-10-13T13:16:59;6.18;;;3.30;;
305;SDS011;137;48.578;9.180;2023-10-13T13:19:32;5.07;;;2.97;;
305;SDS011;137;48.578;9.180;2023-10-13T13:22:01;4.17;;;2.30;;
305;SDS011;137;48.578;9.180;2023-10-13T13:24:28;4.30;;;2.90;;
305;SDS011;137;48.578;9.180;2023-10-13T13:26:56;5.47;;;3.20;;
305;SDS011;137;48.578;9.180;2023-10-13T13:29:27;6.97;;;2.63;;
305;SDS011;137;48.578;9.180;2023-10-13T13:31:54;8.10;;;2.80;;
305;SDS011;137;48.578;9.180;2023-10-13T13:34:21;5.07;;;3.07;;
305;SDS011;137;48.578;9.180;2023-10-13T13:36:49;5.63;;;3.00;;
305;SDS011;137;48.578;9.180;2023-10-13T13:39:18;4.13;;;2.83;;
305;SDS011;137;48.578;9.180;2023-10-13T13:41:55;7.40;;;3.13;;
305;SDS011;137;48.578;9.180;2023-10-13T13:44:22;5.87;;;2.40;;
305;SDS011;137;48.578;9.180;2023-10-13T13:46:54;4.47;;;2.40;;
305;SDS011;137;48.578;9.180;2023-10-13T13:49:22;4.13;;;3.13;;
305;SDS011;137;48.578;9.180;2023-10-13T13:51:56;4.83;;;3.10;;
305;SDS011;137;48.578;9.180;2023-10-13T13:54:29;6.43;;;3.23;;
305;SDS011;137;48.578;9.180;2023-10-13T13:56:56;5.20;;;2.33;;
305;SDS011;137;48.578;9.180;2023-10-13T13:59:23;4.70;;;2.40;;
305;SDS011;137;48.578;9.180;2023-10-13T14:01:49;5.43;;;2.43;;
305;SDS011;137;48.578;9.180;2023-10-13T14:04:18;3.80;;;2.20;;
305;SDS011;137;48.578;9.180;2023-10-13T14:06:44;11.57;;;4.07;;
305;SDS011;137;48.578;9.180;2023-10-13T14:09:12;9.27;;;2.40;;
305;SDS011;137;48.578;9.180;2023-10-13T14:11:57;3.30;;;2.10;;
305;SDS011;137;48.578;9.180;2023-10-13T14:14:42;4.43;;;2.73;;
305;SDS011;137;48.578;9.180;2023-10-13T14:17:14;6.43;;;3.23;;
305;SDS011;137;48.578;9.180;2023-10-13T14:19:43;9.67;;;3.10;;
305;SDS011;137;48.578;9.180;2023-10-13T14:22:10;5.07;;;2.27;;
305;SDS011;137;48.578;9.180;2023-10-13T14:24:39;3.10;;;2.10;;
305;SDS011;137;48.578;9.180;2023-10-13T14:27:16;7.47;;;2.93;;
305;SDS011;137;48.578;9.180;2023-10-13T14:29:44;2.47;;;2.27;;
305;SDS011;137;48.578;9.180;2023-10-13T14:32:12;4.88;;;2.30;;
305;SDS011;137;48.578;9.180;2023-10-13T14:34:46;7.07;;;2.53;;
305;SDS011;137;48.578;9.180;2023-10-13T14:37:19;3.00;;;2.50;;
305;SDS011;137;48.578;9.180;2023-10-13T14:39:52;5.63;;;2.33;;
305;SDS011;137;48.578;9.180;2023-10-13T14:42:22;3.73;;;2.30;;
305;SDS011;137;48.578;9.180;2023-10-13T14:44:49;5.10;;;2.57;;
305;SDS011;137;48.578;9.180;2023-10-13T14:47:20;7.10;;;2.90;;
305;SDS011;137;48.578;9.180;2023-10-13T14:49:52;9.00;;;3.13;;
305;SDS011;137;48.578;9.180;2023-10-13T14:52:20;3.67;;;2.33;;
305;SDS011;137;48.578;9.180;2023-10-13T14:54:47;2.87;;;2.00;;
305;SDS011;137;48.578;9.180;2023-10-13T14:57:21;4.97;;;2.10;;
305;SDS011;137;48.578;9.180;2023-10-13T14:59:49;8.00;;;2.20;;
305;SDS011;137;48.578;9.180;2023-10-13T15:02:17;5.07;;;2.13;;
305;SDS011;137;48.578;9.180;2023-10-13T15:04:44;2.73;;;2.10;;
305;SDS011;137;48.578;9.180;2023-10-13T15:07:13;3.00;;;1.93;;
305;SDS011;137;48.578;9.180;2023-10-13T15:09:40;4.20;;;1.93;;
305;SDS011;137;48.578;9.180;2023-10-13T15:12:07;8.93;;;2.40;;
305;SDS011;137;48.578;9.180;2023-10-13T15:14:36;5.73;;;2.40;;
305;SDS011;137;48.578;9.180;2023-10-13T15:17:04;4.47;;;2.40;;
305;SDS011;137;48.578;9.180;2023-10-13T15:19:31;2.70;;;1.57;;
305;SDS011;137;48.578;9.180;2023-10-13T15:22:01;9.07;;;2.07;;
305;SDS011;137;48.578;9.180;2023-10-13T15:24:31;4.40;;;2.10;;
305;SDS011;137;48.578;9.180;2023-10-13T15:27:01;5.33;;;2.50;;
305;SDS011;137;48.578;9.180;2023-10-13T15:29:33;5.30;;;1.90;;
305;SDS011;137;48.578;9.180;2023-10-13T15:32:03;2.77;;;2.07;;
305;SDS011;137;48.578;9.180;2023-10-13T15:34:51;2.50;;;1.87;;
305;SDS011;137;48.578;9.180;2023-10-13T15:37:17;2.47;;;1.50;;
305;SDS011;137;48.578;9.180;2023-10-13T15:39:45;4.27;;;2.10;;
305;SDS011;137;48.578;9.180;2023-10-13T15:42:11;2.47;;;1.70;;
305;SDS011;137;48.578;9.180;2023-10-13T15:44:39;2.53;;;2.33;;
305;SDS011;137;48.578;9.180;2023-10-13T15:47:09;2.20;;;1.97;;
305;SDS011;137;48.578;9.180;2023-10-13T15:49:37;4.00;;;2.30;;
305;SDS011;137;48.578;9.180;2023-10-13T15:52:06;5.03;;;2.07;;
305;SDS011;137;48.578;9.180;2023-10-13T15:54:34;4.23;;;2.23;;
305;SDS011;137;48.578;9.180;2023-10-13T15:57:01;5.50;;;2.10;;
305;SDS011;137;48.578;9.180;2023-10-13T15:59:31;3.00;;;2.00;;
305;SDS011;137;48.578;9.180;2023-10-13T16:01:59;3.10;;;2.30;;
305;SDS011;137;48.578;9.180;2023-10-13T16:04:27;4.93;;;2.33;;
305;SDS011;137;48.578;9.180;2023-10-13T16:06:54;3.97;;;2.17;;
305;SDS011;137;48.578;9.180;2023-10-13T16:09:20;2.97;;;2.47;;
305;SDS011;137;48.578;9.180;2023-10-13T16:11:49;6.20;;;2.13;;
305;SDS011;137;48.578;9.180;2023-10-13T16:14:16;4.10;;;1.70;;
305;SDS011;137;48.578;9.180;2023-10-13T16:16:44;5.67;;;2.13;;
305;SDS011;137;48.578;9.180;2023-10-13T16:19:13;5.10;;;2.50;;
305;SDS011;137;48.578;9.180;2023-10-13T16:21:43;4.60;;;2.17;;
305;SDS011;137;48.578;9.180;2023-10-13T16:24:10;4.83;;;2.50;;
305;SDS011;137;48.578;9.180;2023-10-13T16:26:40;6.50;;;2.67;;
305;SDS011;137;48.578;9.180;2023-10-13T16:29:07;6.30;;;2.47;;